<?xml version="1.0" encoding="UTF-8" standalone="no" ?>
<gpx xmlns="http://www.topografix.com/GPX/1/1" xmlns:xsi="http://www.w3.org/2001/XMLSchema-instance" xsi:schemaLocation="http://www.topografix.com/GPX/1/1 http://www.topografix.com/GPX/1/1/gpx.xsd" version="1.1" creator="VisuGPX - https://www.visugpx.com">
  <metadata>
    <name>VTT - Calvaire 31-1300</name>
  </metadata>
  <trk>
    <name><![CDATA[2893150-Calvaire]]></name>
    <trkseg>
      <trkpt lat="48.12565" lon="7.16315">
        <ele>485</ele>
        <time>2019-04-12T11:01:17Z</time>
      </trkpt>
      <trkpt lat="48.12577" lon="7.1621">
        <ele>489</ele>
        <time>2019-04-12T11:02:17Z</time>
      </trkpt>
      <trkpt lat="48.12608" lon="7.16039">
        <ele>493</ele>
        <time>2019-04-12T11:03:17Z</time>
      </trkpt>
      <trkpt lat="48.12632" lon="7.16176">
        <ele>485</ele>
        <time>2019-04-12T11:04:17Z</time>
      </trkpt>
      <trkpt lat="48.12746" lon="7.16206">
        <ele>484</ele>
        <time>2019-04-12T11:05:17Z</time>
      </trkpt>
      <trkpt lat="48.12741" lon="7.16322">
        <ele>482</ele>
        <time>2019-04-12T11:06:17Z</time>
      </trkpt>
      <trkpt lat="48.12773" lon="7.16227">
        <ele>492</ele>
        <time>2019-04-12T11:07:17Z</time>
      </trkpt>
      <trkpt lat="48.12799" lon="7.16416">
        <ele>494</ele>
        <time>2019-04-12T11:08:17Z</time>
      </trkpt>
      <trkpt lat="48.128" lon="7.16352">
        <ele>500</ele>
        <time>2019-04-12T11:09:17Z</time>
      </trkpt>
      <trkpt lat="48.12817" lon="7.16401">
        <ele>501</ele>
        <time>2019-04-12T11:10:17Z</time>
      </trkpt>
      <trkpt lat="48.12819" lon="7.16317">
        <ele>509</ele>
        <time>2019-04-12T11:11:17Z</time>
      </trkpt>
      <trkpt lat="48.12829" lon="7.16255">
        <ele>513</ele>
        <time>2019-04-12T11:12:17Z</time>
      </trkpt>
      <trkpt lat="48.12869" lon="7.16189">
        <ele>515</ele>
        <time>2019-04-12T11:13:17Z</time>
      </trkpt>
      <trkpt lat="48.13035" lon="7.16142">
        <ele>541</ele>
        <time>2019-04-12T11:14:17Z</time>
      </trkpt>
      <trkpt lat="48.13105" lon="7.16135">
        <ele>552</ele>
        <time>2019-04-12T11:15:17Z</time>
      </trkpt>
      <trkpt lat="48.1317" lon="7.16184">
        <ele>558</ele>
        <time>2019-04-12T11:16:17Z</time>
      </trkpt>
      <trkpt lat="48.13238" lon="7.16135">
        <ele>562</ele>
        <time>2019-04-12T11:17:17Z</time>
      </trkpt>
      <trkpt lat="48.13326" lon="7.16101">
        <ele>574</ele>
        <time>2019-04-12T11:18:17Z</time>
      </trkpt>
      <trkpt lat="48.13341" lon="7.16217">
        <ele>584</ele>
        <time>2019-04-12T11:19:17Z</time>
      </trkpt>
      <trkpt lat="48.13432" lon="7.1612">
        <ele>602</ele>
        <time>2019-04-12T11:20:17Z</time>
      </trkpt>
      <trkpt lat="48.13465" lon="7.16066">
        <ele>605</ele>
        <time>2019-04-12T11:21:17Z</time>
      </trkpt>
      <trkpt lat="48.13507" lon="7.16045">
        <ele>613</ele>
        <time>2019-04-12T11:22:17Z</time>
      </trkpt>
      <trkpt lat="48.13499" lon="7.16122">
        <ele>619</ele>
        <time>2019-04-12T11:23:17Z</time>
      </trkpt>
      <trkpt lat="48.1346" lon="7.16245">
        <ele>624</ele>
        <time>2019-04-12T11:24:17Z</time>
      </trkpt>
      <trkpt lat="48.13466" lon="7.16343">
        <ele>628</ele>
        <time>2019-04-12T11:25:17Z</time>
      </trkpt>
      <trkpt lat="48.1351" lon="7.16412">
        <ele>639</ele>
        <time>2019-04-12T11:26:17Z</time>
      </trkpt>
      <trkpt lat="48.13591" lon="7.16489">
        <ele>653</ele>
        <time>2019-04-12T11:27:17Z</time>
      </trkpt>
      <trkpt lat="48.13655" lon="7.16631">
        <ele>656</ele>
        <time>2019-04-12T11:28:17Z</time>
      </trkpt>
      <trkpt lat="48.13695" lon="7.16691">
        <ele>659</ele>
        <time>2019-04-12T11:29:17Z</time>
      </trkpt>
      <trkpt lat="48.13661" lon="7.16562">
        <ele>663</ele>
        <time>2019-04-12T11:30:17Z</time>
      </trkpt>
      <trkpt lat="48.13646" lon="7.16444">
        <ele>669</ele>
        <time>2019-04-12T11:31:17Z</time>
      </trkpt>
      <trkpt lat="48.13665" lon="7.16365">
        <ele>674</ele>
        <time>2019-04-12T11:32:17Z</time>
      </trkpt>
      <trkpt lat="48.13651" lon="7.16264">
        <ele>674</ele>
        <time>2019-04-12T11:33:17Z</time>
      </trkpt>
      <trkpt lat="48.13652" lon="7.16169">
        <ele>672</ele>
        <time>2019-04-12T11:34:17Z</time>
      </trkpt>
      <trkpt lat="48.13698" lon="7.16054">
        <ele>667</ele>
        <time>2019-04-12T11:35:17Z</time>
      </trkpt>
      <trkpt lat="48.13741" lon="7.15931">
        <ele>661</ele>
        <time>2019-04-12T11:36:17Z</time>
      </trkpt>
      <trkpt lat="48.13765" lon="7.1582">
        <ele>656</ele>
        <time>2019-04-12T11:37:17Z</time>
      </trkpt>
      <trkpt lat="48.13718" lon="7.15691">
        <ele>651</ele>
        <time>2019-04-12T11:38:17Z</time>
      </trkpt>
      <trkpt lat="48.13704" lon="7.15644">
        <ele>653</ele>
        <time>2019-04-12T11:39:17Z</time>
      </trkpt>
      <trkpt lat="48.13684" lon="7.15571">
        <ele>656</ele>
        <time>2019-04-12T11:40:17Z</time>
      </trkpt>
      <trkpt lat="48.13699" lon="7.15476">
        <ele>656</ele>
        <time>2019-04-12T11:41:17Z</time>
      </trkpt>
      <trkpt lat="48.13659" lon="7.15373">
        <ele>657</ele>
        <time>2019-04-12T11:42:17Z</time>
      </trkpt>
      <trkpt lat="48.13652" lon="7.153">
        <ele>654</ele>
        <time>2019-04-12T11:43:17Z</time>
      </trkpt>
      <trkpt lat="48.13712" lon="7.15178">
        <ele>643</ele>
        <time>2019-04-12T11:44:17Z</time>
      </trkpt>
      <trkpt lat="48.13739" lon="7.15079">
        <ele>641</ele>
        <time>2019-04-12T11:45:17Z</time>
      </trkpt>
      <trkpt lat="48.13704" lon="7.14985">
        <ele>644</ele>
        <time>2019-04-12T11:46:17Z</time>
      </trkpt>
      <trkpt lat="48.13721" lon="7.14948">
        <ele>644</ele>
        <time>2019-04-12T11:47:17Z</time>
      </trkpt>
      <trkpt lat="48.13728" lon="7.14878">
        <ele>647</ele>
        <time>2019-04-12T11:48:17Z</time>
      </trkpt>
      <trkpt lat="48.1385" lon="7.14745">
        <ele>670</ele>
        <time>2019-04-12T11:49:17Z</time>
      </trkpt>
      <trkpt lat="48.13845" lon="7.14667">
        <ele>678</ele>
        <time>2019-04-12T11:50:17Z</time>
      </trkpt>
      <trkpt lat="48.1384" lon="7.1462">
        <ele>681</ele>
        <time>2019-04-12T11:51:17Z</time>
      </trkpt>
      <trkpt lat="48.13898" lon="7.14575">
        <ele>697</ele>
        <time>2019-04-12T11:52:17Z</time>
      </trkpt>
      <trkpt lat="48.13947" lon="7.14515">
        <ele>712</ele>
        <time>2019-04-12T11:53:17Z</time>
      </trkpt>
      <trkpt lat="48.1399" lon="7.14515">
        <ele>722</ele>
        <time>2019-04-12T11:54:17Z</time>
      </trkpt>
      <trkpt lat="48.13966" lon="7.14427">
        <ele>726</ele>
        <time>2019-04-12T11:55:17Z</time>
      </trkpt>
      <trkpt lat="48.1393" lon="7.14348">
        <ele>729</ele>
        <time>2019-04-12T11:56:17Z</time>
      </trkpt>
      <trkpt lat="48.13937" lon="7.14215">
        <ele>745</ele>
        <time>2019-04-12T11:57:17Z</time>
      </trkpt>
      <trkpt lat="48.13946" lon="7.14056">
        <ele>756</ele>
        <time>2019-04-12T11:58:17Z</time>
      </trkpt>
      <trkpt lat="48.14022" lon="7.13856">
        <ele>770</ele>
        <time>2019-04-12T11:59:17Z</time>
      </trkpt>
      <trkpt lat="48.14014" lon="7.13732">
        <ele>774</ele>
        <time>2019-04-12T12:00:17Z</time>
      </trkpt>
      <trkpt lat="48.14047" lon="7.13685">
        <ele>786</ele>
        <time>2019-04-12T12:01:17Z</time>
      </trkpt>
      <trkpt lat="48.14093" lon="7.1373">
        <ele>795</ele>
        <time>2019-04-12T12:02:17Z</time>
      </trkpt>
      <trkpt lat="48.14138" lon="7.13897">
        <ele>806</ele>
        <time>2019-04-12T12:03:17Z</time>
      </trkpt>
      <trkpt lat="48.14196" lon="7.14103">
        <ele>826</ele>
        <time>2019-04-12T12:04:17Z</time>
      </trkpt>
      <trkpt lat="48.14213" lon="7.14052">
        <ele>829</ele>
        <time>2019-04-12T12:05:17Z</time>
      </trkpt>
      <trkpt lat="48.14255" lon="7.13979">
        <ele>838</ele>
        <time>2019-04-12T12:06:17Z</time>
      </trkpt>
      <trkpt lat="48.14284" lon="7.13895">
        <ele>845</ele>
        <time>2019-04-12T12:07:17Z</time>
      </trkpt>
      <trkpt lat="48.14327" lon="7.13783">
        <ele>858</ele>
        <time>2019-04-12T12:08:17Z</time>
      </trkpt>
      <trkpt lat="48.14322" lon="7.13713">
        <ele>867</ele>
        <time>2019-04-12T12:09:17Z</time>
      </trkpt>
      <trkpt lat="48.14304" lon="7.13586">
        <ele>882</ele>
        <time>2019-04-12T12:10:17Z</time>
      </trkpt>
      <trkpt lat="48.14286" lon="7.13476">
        <ele>892</ele>
        <time>2019-04-12T12:11:17Z</time>
      </trkpt>
      <trkpt lat="48.14282" lon="7.13386">
        <ele>904</ele>
        <time>2019-04-12T12:12:17Z</time>
      </trkpt>
      <trkpt lat="48.14298" lon="7.13313">
        <ele>914</ele>
        <time>2019-04-12T12:13:17Z</time>
      </trkpt>
      <trkpt lat="48.14365" lon="7.13337">
        <ele>929</ele>
        <time>2019-04-12T12:14:17Z</time>
      </trkpt>
      <trkpt lat="48.14431" lon="7.13264">
        <ele>937</ele>
        <time>2019-04-12T12:15:17Z</time>
      </trkpt>
      <trkpt lat="48.14461" lon="7.13163">
        <ele>940</ele>
        <time>2019-04-12T12:16:17Z</time>
      </trkpt>
      <trkpt lat="48.14484" lon="7.13034">
        <ele>948</ele>
        <time>2019-04-12T12:17:17Z</time>
      </trkpt>
      <trkpt lat="48.14516" lon="7.12962">
        <ele>959</ele>
        <time>2019-04-12T12:18:17Z</time>
      </trkpt>
      <trkpt lat="48.14546" lon="7.1279">
        <ele>972</ele>
        <time>2019-04-12T12:19:17Z</time>
      </trkpt>
      <trkpt lat="48.14597" lon="7.12955">
        <ele>981</ele>
        <time>2019-04-12T12:20:17Z</time>
      </trkpt>
      <trkpt lat="48.14669" lon="7.13127">
        <ele>998</ele>
        <time>2019-04-12T12:21:17Z</time>
      </trkpt>
      <trkpt lat="48.14749" lon="7.13253">
        <ele>1010</ele>
        <time>2019-04-12T12:22:17Z</time>
      </trkpt>
      <trkpt lat="48.14809" lon="7.13281">
        <ele>1017</ele>
        <time>2019-04-12T12:23:17Z</time>
      </trkpt>
      <trkpt lat="48.15004" lon="7.13305">
        <ele>1039</ele>
        <time>2019-04-12T12:24:17Z</time>
      </trkpt>
      <trkpt lat="48.1516" lon="7.13425">
        <ele>1037</ele>
        <time>2019-04-12T12:25:17Z</time>
      </trkpt>
      <trkpt lat="48.15296" lon="7.13397">
        <ele>1060</ele>
        <time>2019-04-12T12:26:17Z</time>
      </trkpt>
      <trkpt lat="48.15344" lon="7.13358">
        <ele>1066</ele>
        <time>2019-04-12T12:27:17Z</time>
      </trkpt>
      <trkpt lat="48.1535" lon="7.13316">
        <ele>1068</ele>
        <time>2019-04-12T12:28:17Z</time>
      </trkpt>
      <trkpt lat="48.15309" lon="7.13144">
        <ele>1081</ele>
        <time>2019-04-12T12:29:17Z</time>
      </trkpt>
      <trkpt lat="48.15314" lon="7.13069">
        <ele>1082</ele>
        <time>2019-04-12T12:30:17Z</time>
      </trkpt>
      <trkpt lat="48.15333" lon="7.12934">
        <ele>1077</ele>
        <time>2019-04-12T12:31:17Z</time>
      </trkpt>
      <trkpt lat="48.15294" lon="7.12843">
        <ele>1081</ele>
        <time>2019-04-12T12:32:17Z</time>
      </trkpt>
      <trkpt lat="48.15271" lon="7.12577">
        <ele>1092</ele>
        <time>2019-04-12T12:33:17Z</time>
      </trkpt>
      <trkpt lat="48.15239" lon="7.12689">
        <ele>1101</ele>
        <time>2019-04-12T12:34:17Z</time>
      </trkpt>
      <trkpt lat="48.1523" lon="7.12657">
        <ele>1106</ele>
        <time>2019-04-12T12:35:17Z</time>
      </trkpt>
      <trkpt lat="48.15207" lon="7.12691">
        <ele>1110</ele>
        <time>2019-04-12T12:36:17Z</time>
      </trkpt>
      <trkpt lat="48.1519" lon="7.12676">
        <ele>1117</ele>
        <time>2019-04-12T12:37:17Z</time>
      </trkpt>
      <trkpt lat="48.15167" lon="7.1258">
        <ele>1130</ele>
        <time>2019-04-12T12:38:17Z</time>
      </trkpt>
      <trkpt lat="48.15178" lon="7.12477">
        <ele>1135</ele>
        <time>2019-04-12T12:39:17Z</time>
      </trkpt>
      <trkpt lat="48.15188" lon="7.12288">
        <ele>1129</ele>
        <time>2019-04-12T12:40:17Z</time>
      </trkpt>
      <trkpt lat="48.15184" lon="7.12168">
        <ele>1127</ele>
        <time>2019-04-12T12:41:17Z</time>
      </trkpt>
      <trkpt lat="48.15214" lon="7.11897">
        <ele>1144</ele>
        <time>2019-04-12T12:42:17Z</time>
      </trkpt>
      <trkpt lat="48.15176" lon="7.11792">
        <ele>1142</ele>
        <time>2019-04-12T12:43:17Z</time>
      </trkpt>
      <trkpt lat="48.15201" lon="7.11646">
        <ele>1154</ele>
        <time>2019-04-12T12:44:17Z</time>
      </trkpt>
      <trkpt lat="48.15197" lon="7.1155">
        <ele>1155</ele>
        <time>2019-04-12T12:45:17Z</time>
      </trkpt>
      <trkpt lat="48.15289" lon="7.11258">
        <ele>1165</ele>
        <time>2019-04-12T12:46:17Z</time>
      </trkpt>
      <trkpt lat="48.15259" lon="7.11206">
        <ele>1160</ele>
        <time>2019-04-12T12:47:17Z</time>
      </trkpt>
      <trkpt lat="48.15286" lon="7.11101">
        <ele>1152</ele>
        <time>2019-04-12T12:48:17Z</time>
      </trkpt>
      <trkpt lat="48.15343" lon="7.11007">
        <ele>1137</ele>
        <time>2019-04-12T12:49:17Z</time>
      </trkpt>
      <trkpt lat="48.15347" lon="7.10951">
        <ele>1132</ele>
        <time>2019-04-12T12:50:17Z</time>
      </trkpt>
      <trkpt lat="48.15387" lon="7.10964">
        <ele>1125</ele>
        <time>2019-04-12T12:51:17Z</time>
      </trkpt>
      <trkpt lat="48.1538" lon="7.1091">
        <ele>1121</ele>
        <time>2019-04-12T12:52:17Z</time>
      </trkpt>
      <trkpt lat="48.15429" lon="7.10968">
        <ele>1119</ele>
        <time>2019-04-12T12:53:17Z</time>
      </trkpt>
      <trkpt lat="48.15397" lon="7.10799">
        <ele>1103</ele>
        <time>2019-04-12T12:54:17Z</time>
      </trkpt>
      <trkpt lat="48.15419" lon="7.10723">
        <ele>1085</ele>
        <time>2019-04-12T12:55:17Z</time>
      </trkpt>
      <trkpt lat="48.15416" lon="7.10663">
        <ele>1076</ele>
        <time>2019-04-12T12:56:17Z</time>
      </trkpt>
      <trkpt lat="48.1547" lon="7.10696">
        <ele>1078</ele>
        <time>2019-04-12T12:57:17Z</time>
      </trkpt>
      <trkpt lat="48.15468" lon="7.10623">
        <ele>1067</ele>
        <time>2019-04-12T12:58:17Z</time>
      </trkpt>
      <trkpt lat="48.15532" lon="7.10681">
        <ele>1068</ele>
        <time>2019-04-12T12:59:17Z</time>
      </trkpt>
      <trkpt lat="48.15525" lon="7.10603">
        <ele>1058</ele>
        <time>2019-04-12T13:00:17Z</time>
      </trkpt>
      <trkpt lat="48.15579" lon="7.10554">
        <ele>1041</ele>
        <time>2019-04-12T13:01:17Z</time>
      </trkpt>
      <trkpt lat="48.15801" lon="7.10638">
        <ele>998</ele>
        <time>2019-04-12T13:02:17Z</time>
      </trkpt>
      <trkpt lat="48.15718" lon="7.10496">
        <ele>998</ele>
        <time>2019-04-12T13:03:17Z</time>
      </trkpt>
      <trkpt lat="48.15622" lon="7.10427">
        <ele>1014</ele>
        <time>2019-04-12T13:04:17Z</time>
      </trkpt>
      <trkpt lat="48.15503" lon="7.10339">
        <ele>1022</ele>
        <time>2019-04-12T13:05:17Z</time>
      </trkpt>
      <trkpt lat="48.15353" lon="7.10208">
        <ele>1025</ele>
        <time>2019-04-12T13:06:17Z</time>
      </trkpt>
      <trkpt lat="48.15194" lon="7.1006">
        <ele>1031</ele>
        <time>2019-04-12T13:07:17Z</time>
      </trkpt>
      <trkpt lat="48.15154" lon="7.09994">
        <ele>1039</ele>
        <time>2019-04-12T13:08:17Z</time>
      </trkpt>
      <trkpt lat="48.15135" lon="7.09897">
        <ele>1038</ele>
        <time>2019-04-12T13:09:17Z</time>
      </trkpt>
      <trkpt lat="48.1511" lon="7.09786">
        <ele>1037</ele>
        <time>2019-04-12T13:10:17Z</time>
      </trkpt>
      <trkpt lat="48.15028" lon="7.09651">
        <ele>1039</ele>
        <time>2019-04-12T13:11:17Z</time>
      </trkpt>
      <trkpt lat="48.14957" lon="7.09595">
        <ele>1040</ele>
        <time>2019-04-12T13:12:17Z</time>
      </trkpt>
      <trkpt lat="48.14858" lon="7.09528">
        <ele>1042</ele>
        <time>2019-04-12T13:13:17Z</time>
      </trkpt>
      <trkpt lat="48.14766" lon="7.09434">
        <ele>1047</ele>
        <time>2019-04-12T13:14:17Z</time>
      </trkpt>
      <trkpt lat="48.14758" lon="7.09339">
        <ele>1043</ele>
        <time>2019-04-12T13:15:17Z</time>
      </trkpt>
      <trkpt lat="48.14684" lon="7.09194">
        <ele>1048</ele>
        <time>2019-04-12T13:16:17Z</time>
      </trkpt>
      <trkpt lat="48.14596" lon="7.09018">
        <ele>1049</ele>
        <time>2019-04-12T13:17:17Z</time>
      </trkpt>
      <trkpt lat="48.14404" lon="7.08771">
        <ele>1056</ele>
        <time>2019-04-12T13:18:17Z</time>
      </trkpt>
      <trkpt lat="48.14348" lon="7.08764">
        <ele>1063</ele>
        <time>2019-04-12T13:19:17Z</time>
      </trkpt>
      <trkpt lat="48.14278" lon="7.08762">
        <ele>1071</ele>
        <time>2019-04-12T13:20:17Z</time>
      </trkpt>
      <trkpt lat="48.14215" lon="7.08771">
        <ele>1081</ele>
        <time>2019-04-12T13:21:17Z</time>
      </trkpt>
      <trkpt lat="48.14119" lon="7.08857">
        <ele>1106</ele>
        <time>2019-04-12T13:22:17Z</time>
      </trkpt>
      <trkpt lat="48.14044" lon="7.08885">
        <ele>1117</ele>
        <time>2019-04-12T13:23:17Z</time>
      </trkpt>
      <trkpt lat="48.13967" lon="7.08908">
        <ele>1126</ele>
        <time>2019-04-12T13:24:17Z</time>
      </trkpt>
      <trkpt lat="48.13887" lon="7.08874">
        <ele>1130</ele>
        <time>2019-04-12T13:25:17Z</time>
      </trkpt>
      <trkpt lat="48.13805" lon="7.08831">
        <ele>1135</ele>
        <time>2019-04-12T13:26:17Z</time>
      </trkpt>
      <trkpt lat="48.13725" lon="7.08829">
        <ele>1142</ele>
        <time>2019-04-12T13:27:17Z</time>
      </trkpt>
      <trkpt lat="48.13654" lon="7.08861">
        <ele>1147</ele>
        <time>2019-04-12T13:28:17Z</time>
      </trkpt>
      <trkpt lat="48.13606" lon="7.08861">
        <ele>1147</ele>
        <time>2019-04-12T13:29:17Z</time>
      </trkpt>
      <trkpt lat="48.13566" lon="7.08912">
        <ele>1143</ele>
        <time>2019-04-12T13:30:17Z</time>
      </trkpt>
      <trkpt lat="48.13532" lon="7.08988">
        <ele>1134</ele>
        <time>2019-04-12T13:31:17Z</time>
      </trkpt>
      <trkpt lat="48.13505" lon="7.09112">
        <ele>1127</ele>
        <time>2019-04-12T13:32:17Z</time>
      </trkpt>
      <trkpt lat="48.1347" lon="7.09221">
        <ele>1121</ele>
        <time>2019-04-12T13:33:17Z</time>
      </trkpt>
      <trkpt lat="48.13427" lon="7.09271">
        <ele>1115</ele>
        <time>2019-04-12T13:34:17Z</time>
      </trkpt>
      <trkpt lat="48.1337" lon="7.09279">
        <ele>1110</ele>
        <time>2019-04-12T13:35:17Z</time>
      </trkpt>
      <trkpt lat="48.13363" lon="7.09316">
        <ele>1110</ele>
        <time>2019-04-12T13:36:17Z</time>
      </trkpt>
      <trkpt lat="48.13328" lon="7.09294">
        <ele>1107</ele>
        <time>2019-04-12T13:37:17Z</time>
      </trkpt>
      <trkpt lat="48.13255" lon="7.09288">
        <ele>1107</ele>
        <time>2019-04-12T13:38:17Z</time>
      </trkpt>
      <trkpt lat="48.1321" lon="7.09288">
        <ele>1109</ele>
        <time>2019-04-12T13:39:17Z</time>
      </trkpt>
      <trkpt lat="48.13132" lon="7.09299">
        <ele>1114</ele>
        <time>2019-04-12T13:40:17Z</time>
      </trkpt>
      <trkpt lat="48.13054" lon="7.09309">
        <ele>1120</ele>
        <time>2019-04-12T13:41:17Z</time>
      </trkpt>
      <trkpt lat="48.12978" lon="7.09322">
        <ele>1124</ele>
        <time>2019-04-12T13:42:17Z</time>
      </trkpt>
      <trkpt lat="48.12922" lon="7.09363">
        <ele>1124</ele>
        <time>2019-04-12T13:43:17Z</time>
      </trkpt>
      <trkpt lat="48.12863" lon="7.09402">
        <ele>1117</ele>
        <time>2019-04-12T13:44:17Z</time>
      </trkpt>
      <trkpt lat="48.12811" lon="7.09449">
        <ele>1112</ele>
        <time>2019-04-12T13:45:17Z</time>
      </trkpt>
      <trkpt lat="48.1276" lon="7.09507">
        <ele>1109</ele>
        <time>2019-04-12T13:46:17Z</time>
      </trkpt>
      <trkpt lat="48.12675" lon="7.09575">
        <ele>1096</ele>
        <time>2019-04-12T13:47:17Z</time>
      </trkpt>
      <trkpt lat="48.12743" lon="7.09627">
        <ele>1107</ele>
        <time>2019-04-12T13:48:17Z</time>
      </trkpt>
      <trkpt lat="48.12714" lon="7.09653">
        <ele>1101</ele>
        <time>2019-04-12T13:49:17Z</time>
      </trkpt>
      <trkpt lat="48.1272" lon="7.09681">
        <ele>1100</ele>
        <time>2019-04-12T13:50:17Z</time>
      </trkpt>
      <trkpt lat="48.12708" lon="7.09706">
        <ele>1096</ele>
        <time>2019-04-12T13:51:17Z</time>
      </trkpt>
      <trkpt lat="48.12736" lon="7.09739">
        <ele>1097</ele>
        <time>2019-04-12T13:52:17Z</time>
      </trkpt>
      <trkpt lat="48.1279" lon="7.09743">
        <ele>1095</ele>
        <time>2019-04-12T13:53:17Z</time>
      </trkpt>
      <trkpt lat="48.12773" lon="7.09781">
        <ele>1091</ele>
        <time>2019-04-12T13:54:17Z</time>
      </trkpt>
      <trkpt lat="48.1273" lon="7.09796">
        <ele>1087</ele>
        <time>2019-04-12T13:55:17Z</time>
      </trkpt>
      <trkpt lat="48.12737" lon="7.09891">
        <ele>1069</ele>
        <time>2019-04-12T13:56:17Z</time>
      </trkpt>
      <trkpt lat="48.12794" lon="7.09912">
        <ele>1069</ele>
        <time>2019-04-12T13:57:17Z</time>
      </trkpt>
      <trkpt lat="48.1276" lon="7.09938">
        <ele>1063</ele>
        <time>2019-04-12T13:58:17Z</time>
      </trkpt>
      <trkpt lat="48.1269" lon="7.0988">
        <ele>1058</ele>
        <time>2019-04-12T13:59:17Z</time>
      </trkpt>
      <trkpt lat="48.1263" lon="7.09788">
        <ele>1066</ele>
        <time>2019-04-12T14:00:17Z</time>
      </trkpt>
      <trkpt lat="48.12538" lon="7.0964">
        <ele>1064</ele>
        <time>2019-04-12T14:01:17Z</time>
      </trkpt>
      <trkpt lat="48.12505" lon="7.09694">
        <ele>1060</ele>
        <time>2019-04-12T14:02:17Z</time>
      </trkpt>
      <trkpt lat="48.12482" lon="7.09636">
        <ele>1065</ele>
        <time>2019-04-12T14:03:17Z</time>
      </trkpt>
      <trkpt lat="48.12472" lon="7.09696">
        <ele>1066</ele>
        <time>2019-04-12T14:04:17Z</time>
      </trkpt>
      <trkpt lat="48.12453" lon="7.09728">
        <ele>1065</ele>
        <time>2019-04-12T14:05:17Z</time>
      </trkpt>
      <trkpt lat="48.12429" lon="7.0976">
        <ele>1061</ele>
        <time>2019-04-12T14:06:17Z</time>
      </trkpt>
      <trkpt lat="48.12393" lon="7.09773">
        <ele>1061</ele>
        <time>2019-04-12T14:07:17Z</time>
      </trkpt>
      <trkpt lat="48.12365" lon="7.09766">
        <ele>1066</ele>
        <time>2019-04-12T14:08:17Z</time>
      </trkpt>
      <trkpt lat="48.12324" lon="7.09756">
        <ele>1073</ele>
        <time>2019-04-12T14:09:17Z</time>
      </trkpt>
      <trkpt lat="48.12323" lon="7.09837">
        <ele>1048</ele>
        <time>2019-04-12T14:10:17Z</time>
      </trkpt>
      <trkpt lat="48.12327" lon="7.09925">
        <ele>1032</ele>
        <time>2019-04-12T14:11:17Z</time>
      </trkpt>
      <trkpt lat="48.1229" lon="7.09953">
        <ele>1028</ele>
        <time>2019-04-12T14:12:17Z</time>
      </trkpt>
      <trkpt lat="48.12273" lon="7.09878">
        <ele>1039</ele>
        <time>2019-04-12T14:13:17Z</time>
      </trkpt>
      <trkpt lat="48.12227" lon="7.09792">
        <ele>1062</ele>
        <time>2019-04-12T14:14:17Z</time>
      </trkpt>
      <trkpt lat="48.12181" lon="7.09801">
        <ele>1063</ele>
        <time>2019-04-12T14:15:17Z</time>
      </trkpt>
      <trkpt lat="48.12138" lon="7.09859">
        <ele>1060</ele>
        <time>2019-04-12T14:16:17Z</time>
      </trkpt>
      <trkpt lat="48.1211" lon="7.09968">
        <ele>1059</ele>
        <time>2019-04-12T14:17:17Z</time>
      </trkpt>
      <trkpt lat="48.12121" lon="7.10101">
        <ele>1045</ele>
        <time>2019-04-12T14:18:17Z</time>
      </trkpt>
      <trkpt lat="48.12075" lon="7.10213">
        <ele>1044</ele>
        <time>2019-04-12T14:19:17Z</time>
      </trkpt>
      <trkpt lat="48.12072" lon="7.10275">
        <ele>1042</ele>
        <time>2019-04-12T14:20:17Z</time>
      </trkpt>
      <trkpt lat="48.12133" lon="7.10528">
        <ele>1038</ele>
        <time>2019-04-12T14:21:17Z</time>
      </trkpt>
      <trkpt lat="48.12128" lon="7.10616">
        <ele>1031</ele>
        <time>2019-04-12T14:22:17Z</time>
      </trkpt>
      <trkpt lat="48.12082" lon="7.10674">
        <ele>1029</ele>
        <time>2019-04-12T14:23:17Z</time>
      </trkpt>
      <trkpt lat="48.11995" lon="7.10659">
        <ele>1035</ele>
        <time>2019-04-12T14:24:17Z</time>
      </trkpt>
      <trkpt lat="48.11946" lon="7.10623">
        <ele>1034</ele>
        <time>2019-04-12T14:25:17Z</time>
      </trkpt>
      <trkpt lat="48.1189" lon="7.10593">
        <ele>1026</ele>
        <time>2019-04-12T14:26:17Z</time>
      </trkpt>
      <trkpt lat="48.11852" lon="7.10517">
        <ele>1030</ele>
        <time>2019-04-12T14:27:17Z</time>
      </trkpt>
      <trkpt lat="48.11799" lon="7.10423">
        <ele>1030</ele>
        <time>2019-04-12T14:28:17Z</time>
      </trkpt>
      <trkpt lat="48.1176" lon="7.10301">
        <ele>1034</ele>
        <time>2019-04-12T14:29:17Z</time>
      </trkpt>
      <trkpt lat="48.11716" lon="7.10153">
        <ele>1053</ele>
        <time>2019-04-12T14:30:17Z</time>
      </trkpt>
      <trkpt lat="48.11667" lon="7.10153">
        <ele>1033</ele>
        <time>2019-04-12T14:31:17Z</time>
      </trkpt>
      <trkpt lat="48.11562" lon="7.10181">
        <ele>1019</ele>
        <time>2019-04-12T14:32:17Z</time>
      </trkpt>
      <trkpt lat="48.11462" lon="7.10202">
        <ele>1009</ele>
        <time>2019-04-12T14:33:17Z</time>
      </trkpt>
      <trkpt lat="48.11389" lon="7.10208">
        <ele>993</ele>
        <time>2019-04-12T14:34:17Z</time>
      </trkpt>
      <trkpt lat="48.11295" lon="7.10097">
        <ele>976</ele>
        <time>2019-04-12T14:35:17Z</time>
      </trkpt>
      <trkpt lat="48.11266" lon="7.10015">
        <ele>959</ele>
        <time>2019-04-12T14:36:17Z</time>
      </trkpt>
      <trkpt lat="48.11223" lon="7.09996">
        <ele>962</ele>
        <time>2019-04-12T14:37:17Z</time>
      </trkpt>
      <trkpt lat="48.11217" lon="7.10086">
        <ele>973</ele>
        <time>2019-04-12T14:38:17Z</time>
      </trkpt>
      <trkpt lat="48.11166" lon="7.10187">
        <ele>977</ele>
        <time>2019-04-12T14:39:17Z</time>
      </trkpt>
      <trkpt lat="48.11094" lon="7.10262">
        <ele>980</ele>
        <time>2019-04-12T14:40:17Z</time>
      </trkpt>
      <trkpt lat="48.1089" lon="7.1032">
        <ele>975</ele>
        <time>2019-04-12T14:41:17Z</time>
      </trkpt>
      <trkpt lat="48.10805" lon="7.10331">
        <ele>976</ele>
        <time>2019-04-12T14:42:17Z</time>
      </trkpt>
      <trkpt lat="48.10752" lon="7.10316">
        <ele>978</ele>
        <time>2019-04-12T14:43:17Z</time>
      </trkpt>
      <trkpt lat="48.10674" lon="7.10331">
        <ele>977</ele>
        <time>2019-04-12T14:44:17Z</time>
      </trkpt>
      <trkpt lat="48.10605" lon="7.10309">
        <ele>986</ele>
        <time>2019-04-12T14:45:17Z</time>
      </trkpt>
      <trkpt lat="48.10508" lon="7.10376">
        <ele>974</ele>
        <time>2019-04-12T14:46:17Z</time>
      </trkpt>
      <trkpt lat="48.10416" lon="7.10421">
        <ele>971</ele>
        <time>2019-04-12T14:47:17Z</time>
      </trkpt>
      <trkpt lat="48.10269" lon="7.10586">
        <ele>963</ele>
        <time>2019-04-12T14:48:17Z</time>
      </trkpt>
      <trkpt lat="48.1009" lon="7.10668">
        <ele>973</ele>
        <time>2019-04-12T14:49:17Z</time>
      </trkpt>
      <trkpt lat="48.0991" lon="7.1062">
        <ele>970</ele>
        <time>2019-04-12T14:50:17Z</time>
      </trkpt>
      <trkpt lat="48.09786" lon="7.1056">
        <ele>967</ele>
        <time>2019-04-12T14:51:17Z</time>
      </trkpt>
      <trkpt lat="48.09651" lon="7.1052">
        <ele>960</ele>
        <time>2019-04-12T14:52:17Z</time>
      </trkpt>
      <trkpt lat="48.09545" lon="7.10616">
        <ele>958</ele>
        <time>2019-04-12T14:53:17Z</time>
      </trkpt>
      <trkpt lat="48.09392" lon="7.10758">
        <ele>957</ele>
        <time>2019-04-12T14:54:17Z</time>
      </trkpt>
      <trkpt lat="48.09207" lon="7.10968">
        <ele>959</ele>
        <time>2019-04-12T14:55:17Z</time>
      </trkpt>
      <trkpt lat="48.09122" lon="7.11054">
        <ele>958</ele>
        <time>2019-04-12T14:56:17Z</time>
      </trkpt>
      <trkpt lat="48.09101" lon="7.11219">
        <ele>951</ele>
        <time>2019-04-12T14:57:17Z</time>
      </trkpt>
      <trkpt lat="48.09053" lon="7.11208">
        <ele>947</ele>
        <time>2019-04-12T14:58:17Z</time>
      </trkpt>
      <trkpt lat="48.08982" lon="7.11299">
        <ele>933</ele>
        <time>2019-04-12T14:59:17Z</time>
      </trkpt>
      <trkpt lat="48.08944" lon="7.11412">
        <ele>919</ele>
        <time>2019-04-12T15:00:17Z</time>
      </trkpt>
      <trkpt lat="48.08797" lon="7.11586">
        <ele>890</ele>
        <time>2019-04-12T15:01:17Z</time>
      </trkpt>
      <trkpt lat="48.08463" lon="7.11715">
        <ele>932</ele>
        <time>2019-04-12T15:02:17Z</time>
      </trkpt>
      <trkpt lat="48.0844" lon="7.11895">
        <ele>927</ele>
        <time>2019-04-12T15:03:17Z</time>
      </trkpt>
      <trkpt lat="48.08302" lon="7.12082">
        <ele>950</ele>
        <time>2019-04-12T15:04:17Z</time>
      </trkpt>
      <trkpt lat="48.08107" lon="7.122">
        <ele>944</ele>
        <time>2019-04-12T15:05:17Z</time>
      </trkpt>
      <trkpt lat="48.08024" lon="7.12352">
        <ele>940</ele>
        <time>2019-04-12T15:06:17Z</time>
      </trkpt>
      <trkpt lat="48.0804" lon="7.12524">
        <ele>936</ele>
        <time>2019-04-12T15:07:17Z</time>
      </trkpt>
      <trkpt lat="48.07855" lon="7.12725">
        <ele>947</ele>
        <time>2019-04-12T15:08:17Z</time>
      </trkpt>
      <trkpt lat="48.07848" lon="7.12835">
        <ele>945</ele>
        <time>2019-04-12T15:09:17Z</time>
      </trkpt>
      <trkpt lat="48.07806" lon="7.12996">
        <ele>949</ele>
        <time>2019-04-12T15:10:17Z</time>
      </trkpt>
      <trkpt lat="48.07765" lon="7.13378">
        <ele>979</ele>
        <time>2019-04-12T15:11:17Z</time>
      </trkpt>
      <trkpt lat="48.07832" lon="7.13755">
        <ele>1004</ele>
        <time>2019-04-12T15:12:17Z</time>
      </trkpt>
      <trkpt lat="48.07844" lon="7.14039">
        <ele>999</ele>
        <time>2019-04-12T15:13:17Z</time>
      </trkpt>
      <trkpt lat="48.07928" lon="7.14172">
        <ele>1001</ele>
        <time>2019-04-12T15:14:17Z</time>
      </trkpt>
      <trkpt lat="48.07887" lon="7.14328">
        <ele>978</ele>
        <time>2019-04-12T15:15:17Z</time>
      </trkpt>
      <trkpt lat="48.07852" lon="7.14594">
        <ele>999</ele>
        <time>2019-04-12T15:16:17Z</time>
      </trkpt>
      <trkpt lat="48.07902" lon="7.14871">
        <ele>998</ele>
        <time>2019-04-12T15:17:17Z</time>
      </trkpt>
      <trkpt lat="48.07904" lon="7.14989">
        <ele>988</ele>
        <time>2019-04-12T15:18:17Z</time>
      </trkpt>
      <trkpt lat="48.07928" lon="7.15101">
        <ele>985</ele>
        <time>2019-04-12T15:19:17Z</time>
      </trkpt>
      <trkpt lat="48.08114" lon="7.15144">
        <ele>979</ele>
        <time>2019-04-12T15:20:17Z</time>
      </trkpt>
      <trkpt lat="48.08225" lon="7.15154">
        <ele>971</ele>
        <time>2019-04-12T15:21:17Z</time>
      </trkpt>
      <trkpt lat="48.08258" lon="7.15305">
        <ele>963</ele>
        <time>2019-04-12T15:22:17Z</time>
      </trkpt>
      <trkpt lat="48.08288" lon="7.15416">
        <ele>958</ele>
        <time>2019-04-12T15:23:17Z</time>
      </trkpt>
      <trkpt lat="48.0849" lon="7.15474">
        <ele>937</ele>
        <time>2019-04-12T15:24:17Z</time>
      </trkpt>
      <trkpt lat="48.08675" lon="7.15472">
        <ele>935</ele>
        <time>2019-04-12T15:25:17Z</time>
      </trkpt>
      <trkpt lat="48.08785" lon="7.15378">
        <ele>935</ele>
        <time>2019-04-12T15:26:17Z</time>
      </trkpt>
      <trkpt lat="48.08947" lon="7.15318">
        <ele>931</ele>
        <time>2019-04-12T15:27:17Z</time>
      </trkpt>
      <trkpt lat="48.0905" lon="7.15215">
        <ele>941</ele>
        <time>2019-04-12T15:28:17Z</time>
      </trkpt>
      <trkpt lat="48.09202" lon="7.15202">
        <ele>930</ele>
        <time>2019-04-12T15:29:17Z</time>
      </trkpt>
      <trkpt lat="48.09296" lon="7.15129">
        <ele>935</ele>
        <time>2019-04-12T15:30:17Z</time>
      </trkpt>
      <trkpt lat="48.09496" lon="7.15039">
        <ele>935</ele>
        <time>2019-04-12T15:31:17Z</time>
      </trkpt>
      <trkpt lat="48.09648" lon="7.15019">
        <ele>939</ele>
        <time>2019-04-12T15:32:17Z</time>
      </trkpt>
      <trkpt lat="48.09733" lon="7.15079">
        <ele>936</ele>
        <time>2019-04-12T15:33:17Z</time>
      </trkpt>
      <trkpt lat="48.09903" lon="7.15086">
        <ele>923</ele>
        <time>2019-04-12T15:34:17Z</time>
      </trkpt>
      <trkpt lat="48.10022" lon="7.15225">
        <ele>909</ele>
        <time>2019-04-12T15:35:17Z</time>
      </trkpt>
      <trkpt lat="48.10174" lon="7.15311">
        <ele>893</ele>
        <time>2019-04-12T15:36:17Z</time>
      </trkpt>
      <trkpt lat="48.10259" lon="7.1536">
        <ele>876</ele>
        <time>2019-04-12T15:37:17Z</time>
      </trkpt>
      <trkpt lat="48.1037" lon="7.15414">
        <ele>874</ele>
        <time>2019-04-12T15:38:17Z</time>
      </trkpt>
      <trkpt lat="48.10469" lon="7.15483">
        <ele>879</ele>
        <time>2019-04-12T15:39:17Z</time>
      </trkpt>
      <trkpt lat="48.10544" lon="7.15521">
        <ele>885</ele>
        <time>2019-04-12T15:40:17Z</time>
      </trkpt>
      <trkpt lat="48.10618" lon="7.15573">
        <ele>886</ele>
        <time>2019-04-12T15:41:17Z</time>
      </trkpt>
      <trkpt lat="48.10624" lon="7.15524">
        <ele>882</ele>
        <time>2019-04-12T15:42:17Z</time>
      </trkpt>
      <trkpt lat="48.10588" lon="7.15474">
        <ele>877</ele>
        <time>2019-04-12T15:43:17Z</time>
      </trkpt>
      <trkpt lat="48.10594" lon="7.15438">
        <ele>866</ele>
        <time>2019-04-12T15:44:17Z</time>
      </trkpt>
      <trkpt lat="48.10704" lon="7.15425">
        <ele>839</ele>
        <time>2019-04-12T15:45:17Z</time>
      </trkpt>
      <trkpt lat="48.1068" lon="7.15378">
        <ele>830</ele>
        <time>2019-04-12T15:46:17Z</time>
      </trkpt>
      <trkpt lat="48.10678" lon="7.15309">
        <ele>807</ele>
        <time>2019-04-12T15:47:17Z</time>
      </trkpt>
      <trkpt lat="48.10842" lon="7.15384">
        <ele>779</ele>
        <time>2019-04-12T15:48:17Z</time>
      </trkpt>
      <trkpt lat="48.10901" lon="7.15412">
        <ele>764</ele>
        <time>2019-04-12T15:49:17Z</time>
      </trkpt>
      <trkpt lat="48.11015" lon="7.15536">
        <ele>753</ele>
        <time>2019-04-12T15:50:17Z</time>
      </trkpt>
      <trkpt lat="48.111" lon="7.15545">
        <ele>745</ele>
        <time>2019-04-12T15:51:17Z</time>
      </trkpt>
      <trkpt lat="48.11203" lon="7.15524">
        <ele>741</ele>
        <time>2019-04-12T15:52:17Z</time>
      </trkpt>
      <trkpt lat="48.11253" lon="7.15545">
        <ele>742</ele>
        <time>2019-04-12T15:53:17Z</time>
      </trkpt>
      <trkpt lat="48.11389" lon="7.15607">
        <ele>742</ele>
        <time>2019-04-12T15:54:17Z</time>
      </trkpt>
      <trkpt lat="48.11436" lon="7.15594">
        <ele>743</ele>
        <time>2019-04-12T15:55:17Z</time>
      </trkpt>
      <trkpt lat="48.11495" lon="7.15712">
        <ele>725</ele>
        <time>2019-04-12T15:56:17Z</time>
      </trkpt>
      <trkpt lat="48.11658" lon="7.15794">
        <ele>696</ele>
        <time>2019-04-12T15:57:17Z</time>
      </trkpt>
      <trkpt lat="48.11711" lon="7.15845">
        <ele>691</ele>
        <time>2019-04-12T15:58:17Z</time>
      </trkpt>
      <trkpt lat="48.11776" lon="7.15833">
        <ele>682</ele>
        <time>2019-04-12T15:59:17Z</time>
      </trkpt>
      <trkpt lat="48.11817" lon="7.15873">
        <ele>678</ele>
        <time>2019-04-12T16:00:17Z</time>
      </trkpt>
      <trkpt lat="48.11912" lon="7.15936">
        <ele>674</ele>
        <time>2019-04-12T16:01:17Z</time>
      </trkpt>
      <trkpt lat="48.11966" lon="7.1597">
        <ele>664</ele>
        <time>2019-04-12T16:02:17Z</time>
      </trkpt>
      <trkpt lat="48.12022" lon="7.15916">
        <ele>652</ele>
        <time>2019-04-12T16:03:17Z</time>
      </trkpt>
      <trkpt lat="48.1209" lon="7.15871">
        <ele>636</ele>
        <time>2019-04-12T16:04:17Z</time>
      </trkpt>
      <trkpt lat="48.12091" lon="7.15948">
        <ele>629</ele>
        <time>2019-04-12T16:05:17Z</time>
      </trkpt>
      <trkpt lat="48.12078" lon="7.16">
        <ele>628</ele>
        <time>2019-04-12T16:06:17Z</time>
      </trkpt>
      <trkpt lat="48.12161" lon="7.15985">
        <ele>608</ele>
        <time>2019-04-12T16:07:17Z</time>
      </trkpt>
      <trkpt lat="48.12259" lon="7.15998">
        <ele>583</ele>
        <time>2019-04-12T16:08:17Z</time>
      </trkpt>
      <trkpt lat="48.12396" lon="7.15996">
        <ele>567</ele>
        <time>2019-04-12T16:09:17Z</time>
      </trkpt>
      <trkpt lat="48.12446" lon="7.15985">
        <ele>555</ele>
        <time>2019-04-12T16:10:17Z</time>
      </trkpt>
      <trkpt lat="48.12501" lon="7.16049">
        <ele>534</ele>
        <time>2019-04-12T16:11:17Z</time>
      </trkpt>
      <trkpt lat="48.12479" lon="7.16131">
        <ele>530</ele>
        <time>2019-04-12T16:12:17Z</time>
      </trkpt>
      <trkpt lat="48.12528" lon="7.16227">
        <ele>498</ele>
        <time>2019-04-12T16:13:17Z</time>
      </trkpt>
      <trkpt lat="48.12562" lon="7.16313">
        <ele>486</ele>
        <time>2019-04-12T16:14:17Z</time>
      </trkpt>
    </trkseg>
  </trk>
</gpx>